North Lancaster, Massachusetts
Current Conditions -  °F | °C
As of 7:52 PM on Monday 22 Dec 2014 (Local Time) from KFIT Reporting Station
Overcast Overcast  
Wind Chill: 36°   Ceiling: 600
Heat Index: 36°   Visibility: 7mi
Dew Point: 33°   Wind: 3mph
Humidity: 89%   Direction: 340°NNW
Pressure: 30.34"   Gusts: NA
Location:  42.4719°N, 71.6906°W
Report Text: KFIT 230052Z AUTO 34003KT 7SM OVC006 02/01 A3034 RMK AO2 RAE23 SLP276 P0000 T00220006
Loading
Personal Weather Stations






























Interactive Weather Map New forecast layout! Learn more

10-Day Weather Forecast

Advertisements
Track Severe Weather on mobile